Terminal Aerodrome Forecast
Issued by NWS

Home | Current Version | Previous Version | Graphics & Text | Print | Product List | Glossary On
Versions: 1 2 3 4 5 6 7 8 9 10 11 12 13 14 15 16 17 18 19 20 21 22 23 24 25
000
FTUS43 KDLH 201131
TAFHIB
TAF
KHIB 201131Z 2012/2112 00000KT 3SM BR SCT015 OVC025
     FM201400 15006KT 3/4SM -FZDZ BR OVC010
     FM201800 13006KT 1 1/2SM -RA BR OVC004
     FM202200 13005KT 2SM -SN BR OVC003=

USA.gov is the U.S. government's official web portal to all federal, state and local government web resources and services.